createdAt,value
2018-09-10T00:00:26.757Z,4.00
2018-09-10T00:02:55.078Z,3.97
2018-09-10T00:05:23.415Z,3.50
2018-09-10T00:07:51.768Z,3.60
2018-09-10T00:10:20.172Z,4.03
2018-09-10T00:12:48.511Z,3.70
2018-09-10T00:15:16.854Z,3.43
2018-09-10T00:17:45.180Z,3.40
2018-09-10T00:20:13.535Z,3.17
2018-09-10T00:22:42.054Z,3.57
2018-09-10T00:25:10.447Z,3.67
2018-09-10T00:27:38.790Z,3.60
2018-09-10T00:30:07.178Z,4.20
2018-09-10T00:32:35.578Z,3.77
2018-09-10T00:35:04.018Z,4.33
2018-09-10T00:37:32.361Z,4.13
2018-09-10T00:40:00.682Z,3.90
2018-09-10T00:42:28.995Z,4.50
2018-09-10T00:44:57.293Z,4.00
2018-09-10T00:47:25.625Z,4.20
2018-09-10T00:49:53.956Z,3.87
2018-09-10T00:52:22.301Z,4.10
2018-09-10T00:54:50.609Z,4.30
2018-09-10T00:57:18.958Z,4.47
2018-09-10T00:59:47.269Z,4.30
2018-09-10T01:02:15.624Z,4.20
2018-09-10T01:04:43.955Z,4.07
2018-09-10T01:07:12.283Z,6.80
2018-09-10T01:09:40.620Z,4.13
2018-09-10T01:12:08.936Z,4.03
2018-09-10T01:14:37.298Z,4.47
2018-09-10T01:17:05.892Z,4.30
2018-09-10T01:19:34.240Z,4.00
2018-09-10T01:22:02.582Z,4.20
2018-09-10T01:24:30.952Z,3.07
2018-09-10T01:26:59.278Z,3.83
2018-09-10T01:29:27.641Z,4.53
2018-09-10T01:31:55.989Z,3.50
2018-09-10T01:34:29.746Z,3.53
2018-09-10T01:36:58.058Z,4.00
2018-09-10T01:39:26.403Z,4.00
2018-09-10T01:41:54.723Z,4.00
2018-09-10T01:44:23.039Z,3.73
2018-09-10T01:46:51.381Z,3.60
2018-09-10T01:49:19.917Z,4.23
2018-09-10T01:51:48.243Z,4.20
2018-09-10T01:54:16.596Z,4.07
2018-09-10T01:56:44.923Z,3.80
2018-09-10T01:59:13.258Z,3.67
2018-09-10T02:01:41.587Z,3.50
2018-09-10T02:04:09.905Z,3.50
2018-09-10T02:06:38.314Z,4.00
2018-09-10T02:09:07.958Z,4.10
2018-09-10T02:11:36.278Z,3.90
2018-09-10T02:14:04.611Z,4.00
2018-09-10T02:16:32.992Z,3.70
2018-09-10T02:19:01.325Z,4.10
2018-09-10T02:21:29.691Z,4.23
2018-09-10T02:23:58.039Z,4.77
2018-09-10T02:26:26.419Z,4.00
2018-09-10T02:28:56.297Z,3.60
2018-09-10T02:31:24.641Z,3.20
2018-09-10T02:33:52.973Z,3.90
2018-09-10T02:36:21.273Z,4.23
2018-09-10T02:38:49.630Z,4.13
2018-09-10T02:41:18.009Z,3.87
2018-09-10T02:43:46.931Z,3.90
2018-09-10T02:46:15.589Z,3.90
2018-09-10T02:48:43.913Z,3.80
2018-09-10T02:51:12.247Z,3.50
2018-09-10T02:53:40.595Z,3.53
2018-09-10T02:56:08.938Z,3.57
2018-09-10T02:58:37.474Z,3.30
2018-09-10T03:01:05.961Z,2.90
2018-09-10T03:03:34.329Z,3.43
2018-09-10T03:06:02.730Z,3.47
2018-09-10T03:08:31.072Z,4.17
2018-09-10T03:11:00.150Z,3.30
2018-09-10T03:13:28.525Z,3.60
2018-09-10T03:15:56.867Z,3.93
2018-09-10T03:18:25.286Z,3.87
2018-09-10T03:20:53.598Z,3.27
2018-09-10T03:23:21.958Z,3.47
2018-09-10T03:25:50.333Z,3.47
2018-09-10T03:28:18.646Z,3.90
2018-09-10T03:30:47.028Z,4.07
2018-09-10T03:33:15.353Z,5.07
2018-09-10T03:35:43.702Z,5.27
2018-09-10T03:38:12.030Z,5.33
2018-09-10T03:40:40.423Z,4.30
2018-09-10T03:43:08.732Z,3.90
2018-09-10T03:45:37.047Z,4.33
2018-09-10T03:48:05.333Z,4.67
2018-09-10T03:50:33.873Z,5.23
2018-09-10T03:53:02.222Z,4.40
2018-09-10T03:55:30.564Z,4.87
2018-09-10T03:57:58.917Z,4.60
2018-09-10T04:00:27.275Z,6.03
2018-09-10T04:02:55.762Z,4.63
2018-09-10T04:05:24.121Z,4.20
2018-09-10T04:07:52.500Z,4.83
2018-09-10T04:10:20.828Z,3.97
2018-09-10T04:12:49.146Z,5.00
2018-09-10T04:15:17.522Z,5.10
2018-09-10T04:17:45.850Z,4.30
2018-09-10T04:20:14.187Z,4.90
2018-09-10T04:22:42.918Z,4.80
2018-09-10T04:25:11.236Z,4.13
2018-09-10T04:27:39.549Z,3.83
2018-09-10T04:30:12.815Z,3.90
2018-09-10T04:32:41.705Z,4.50
2018-09-10T04:35:10.551Z,5.10
2018-09-10T04:37:39.343Z,4.60
2018-09-10T04:40:07.904Z,4.83
2018-09-10T04:42:36.318Z,4.67
2018-09-10T04:45:05.197Z,5.30
2018-09-10T04:47:33.539Z,4.43
2018-09-10T04:50:02.253Z,4.93
2018-09-10T04:52:30.575Z,5.30
2018-09-10T04:54:58.894Z,4.53
2018-09-10T04:57:27.308Z,5.10
2018-09-10T04:59:55.663Z,4.70
2018-09-10T05:02:24.003Z,4.90
2018-09-10T05:04:52.326Z,5.30
2018-09-10T05:07:20.674Z,4.97
2018-09-10T05:09:49.167Z,5.50
2018-09-10T05:12:17.369Z,4.83
2018-09-10T05:14:45.739Z,4.90
2018-09-10T05:17:14.051Z,5.10
2018-09-10T05:19:42.401Z,4.60
2018-09-10T05:22:10.866Z,4.40
2018-09-10T05:24:39.161Z,5.20
2018-09-10T05:27:07.506Z,4.43
2018-09-10T05:29:35.965Z,4.47
2018-09-10T05:32:04.305Z,4.40
2018-09-10T05:34:32.765Z,4.50
2018-09-10T05:37:01.095Z,4.77
2018-09-10T05:39:29.422Z,4.20
2018-09-10T05:41:57.792Z,4.87
2018-09-10T05:44:26.282Z,4.17
2018-09-10T05:46:54.611Z,4.63
2018-09-10T05:49:22.987Z,5.30
2018-09-10T05:51:51.374Z,5.80
2018-09-10T05:54:19.706Z,6.00
2018-09-10T05:56:48.072Z,5.57
2018-09-10T05:59:16.434Z,4.93
2018-09-10T06:01:44.813Z,5.10
2018-09-10T06:04:13.159Z,6.40
2018-09-10T06:06:41.514Z,5.90
2018-09-10T06:09:09.865Z,5.50
2018-09-10T06:11:38.330Z,6.30
2018-09-10T06:14:06.829Z,5.60
2018-09-10T06:16:35.286Z,5.20
2018-09-10T06:19:03.593Z,6.30
2018-09-10T06:21:32.287Z,5.90
2018-09-10T06:24:01.501Z,6.00
2018-09-10T06:26:29.842Z,6.60
2018-09-10T06:28:58.255Z,6.07
2018-09-10T06:31:26.714Z,6.30
2018-09-10T06:33:55.961Z,6.20
2018-09-10T06:36:24.956Z,7.57
2018-09-10T06:38:53.342Z,6.50
2018-09-10T06:41:21.775Z,6.67
2018-09-10T06:43:50.128Z,6.93
2018-09-10T06:46:18.472Z,8.57
2018-09-10T06:48:46.835Z,7.03
2018-09-10T06:51:15.215Z,8.73
2018-09-10T06:53:43.611Z,7.43
2018-09-10T06:56:11.973Z,7.93
2018-09-10T06:58:40.398Z,7.70
2018-09-10T07:01:08.754Z,6.20
2018-09-10T07:03:37.117Z,7.70
2018-09-10T07:06:05.545Z,6.33
2018-09-10T07:08:33.912Z,6.63
2018-09-10T07:11:02.252Z,7.20
2018-09-10T07:13:30.660Z,6.93
2018-09-10T07:15:59.047Z,7.30
2018-09-10T07:18:27.417Z,6.00
2018-09-10T07:20:55.775Z,7.07
2018-09-10T07:23:24.233Z,7.33
2018-09-10T07:25:52.858Z,6.53
2018-09-10T07:28:21.233Z,7.23
2018-09-10T07:30:49.643Z,6.93
2018-09-10T07:33:18.016Z,6.07
2018-09-10T07:35:46.433Z,7.40
2018-09-10T07:38:14.764Z,6.83
2018-09-10T07:40:43.146Z,7.00
2018-09-10T07:43:11.502Z,7.10
2018-09-10T07:45:39.943Z,7.53
2018-09-10T07:48:08.310Z,7.23
2018-09-10T07:50:37.475Z,6.93
2018-09-10T07:53:05.847Z,6.90
2018-09-10T07:55:34.246Z,6.70
2018-09-10T07:58:02.624Z,7.20
2018-09-10T08:00:31.031Z,7.97
2018-09-10T08:02:59.440Z,7.60
2018-09-10T08:05:27.773Z,8.20
2018-09-10T08:07:56.199Z,8.63
2018-09-10T08:10:24.594Z,7.80
2018-09-10T08:12:53.002Z,7.07
2018-09-10T08:15:21.346Z,8.70
2018-09-10T08:17:49.784Z,8.63
2018-09-10T08:20:17.811Z,7.97
2018-09-10T08:22:46.226Z,7.73
2018-09-10T08:25:14.773Z,8.20
2018-09-10T08:27:43.191Z,7.70
2018-09-10T08:30:11.666Z,8.67
2018-09-10T08:32:40.061Z,9.20
2018-09-10T08:35:08.503Z,7.60
2018-09-10T08:37:36.928Z,8.17
2018-09-10T08:40:05.402Z,7.23
2018-09-10T08:42:33.756Z,7.53
2018-09-10T08:45:02.100Z,8.37
2018-09-10T08:47:30.484Z,8.50
2018-09-10T08:49:58.830Z,9.60
2018-09-10T08:52:27.268Z,10.10
2018-09-10T08:54:56.185Z,9.10
2018-09-10T08:57:24.206Z,7.90
2018-09-10T08:59:52.630Z,8.53
2018-09-10T09:02:21.101Z,8.40
2018-09-10T09:04:49.461Z,7.80
2018-09-10T09:07:17.821Z,6.90
2018-09-10T09:09:46.239Z,6.97
2018-09-10T09:12:14.607Z,7.10
2018-09-10T09:14:43.039Z,6.30
2018-09-10T09:17:11.380Z,6.60
2018-09-10T09:19:39.750Z,6.20
2018-09-10T09:22:08.105Z,6.70
2018-09-10T09:24:36.570Z,5.87
2018-09-10T09:27:04.964Z,6.33
2018-09-10T09:29:33.371Z,5.73
2018-09-10T09:32:01.715Z,5.37
2018-09-10T09:34:36.213Z,5.43
2018-09-10T09:37:10.441Z,5.47
2018-09-10T09:39:44.292Z,5.83
2018-09-10T09:42:18.051Z,5.10
2018-09-10T09:47:29.334Z,5.40
2018-09-10T09:49:57.753Z,4.80
2018-09-10T09:52:26.104Z,5.10
2018-09-10T09:54:54.531Z,5.70
2018-09-10T09:57:22.942Z,4.77
2018-09-10T09:59:51.277Z,5.27
2018-09-10T10:02:21.441Z,4.80
2018-09-10T10:04:49.832Z,5.13
2018-09-10T10:07:18.434Z,4.80
2018-09-10T10:09:46.835Z,5.43
2018-09-10T10:12:15.284Z,5.77
2018-09-10T10:14:43.595Z,4.90
2018-09-10T10:17:11.967Z,5.07
2018-09-10T10:19:40.282Z,4.37
2018-09-10T10:22:08.648Z,4.70
2018-09-10T10:24:37.102Z,4.60
2018-09-10T10:27:09.104Z,4.53
2018-09-10T10:29:37.639Z,3.93
2018-09-10T10:32:06.118Z,4.70
2018-09-10T10:34:34.518Z,4.03
2018-09-10T10:37:02.891Z,4.33
2018-09-10T10:39:31.245Z,3.93
2018-09-10T10:41:59.643Z,3.87
2018-09-10T10:44:28.007Z,4.20
2018-09-10T10:46:56.425Z,4.20
2018-09-10T10:49:24.763Z,3.97
2018-09-10T10:51:53.141Z,4.00
2018-09-10T10:54:21.529Z,3.67
2018-09-10T10:56:49.927Z,4.37
2018-09-10T10:59:18.326Z,4.93
2018-09-10T11:01:46.695Z,4.80
2018-09-10T11:04:15.149Z,4.53
2018-09-10T11:06:43.458Z,4.00
2018-09-10T11:09:11.859Z,4.30
2018-09-10T11:11:40.248Z,4.33
2018-09-10T11:14:08.617Z,4.80
2018-09-10T11:16:36.991Z,4.47
2018-09-10T11:19:05.380Z,4.70
2018-09-10T11:21:33.707Z,4.63
2018-09-10T11:24:02.087Z,4.10
2018-09-10T11:26:30.449Z,4.30
2018-09-10T11:28:58.814Z,4.20
2018-09-10T11:31:27.251Z,4.50
2018-09-10T11:33:55.635Z,4.13
2018-09-10T11:36:24.310Z,4.00
2018-09-10T11:38:52.687Z,4.30
2018-09-10T11:41:21.040Z,4.63
2018-09-10T11:43:49.415Z,4.77
2018-09-10T11:46:17.810Z,4.57
2018-09-10T11:48:46.293Z,4.13
2018-09-10T11:51:14.653Z,4.40
2018-09-10T11:53:43.010Z,4.67
2018-09-10T11:56:11.438Z,4.83
2018-09-10T11:58:39.786Z,4.20
2018-09-10T12:01:08.295Z,4.30
2018-09-10T12:03:36.723Z,4.20
2018-09-10T12:06:05.105Z,4.63
2018-09-10T12:08:33.457Z,4.37
2018-09-10T12:11:01.815Z,4.50
2018-09-10T12:13:30.258Z,4.30
2018-09-10T12:15:58.628Z,4.27
2018-09-10T12:18:26.962Z,4.87
2018-09-10T12:20:55.346Z,4.23
2018-09-10T12:23:23.762Z,4.63
2018-09-10T12:25:52.128Z,4.67
2018-09-10T12:28:20.495Z,4.40
2018-09-10T12:30:49.211Z,4.03
2018-09-10T12:33:17.577Z,4.00
2018-09-10T12:35:45.950Z,4.30
2018-09-10T12:38:14.314Z,4.43
2018-09-10T12:40:42.635Z,4.47
2018-09-10T12:43:11.014Z,4.40
2018-09-10T12:45:39.355Z,4.53
2018-09-10T12:48:07.706Z,4.93
2018-09-10T12:50:36.163Z,4.90
2018-09-10T12:53:04.561Z,4.00
2018-09-10T12:55:34.471Z,4.80
2018-09-10T12:58:03.013Z,4.67
2018-09-10T13:00:31.637Z,4.87
2018-09-10T13:03:00.420Z,4.40
2018-09-10T13:05:28.994Z,4.70
2018-09-10T13:07:57.605Z,4.10
2018-09-10T13:10:26.144Z,4.53
2018-09-10T13:12:54.796Z,3.87
2018-09-10T13:15:23.321Z,3.47
2018-09-10T13:17:52.030Z,3.67
2018-09-10T13:20:20.858Z,3.20
2018-09-10T13:22:49.638Z,3.50
2018-09-10T13:25:18.199Z,3.13
2018-09-10T13:27:46.791Z,3.20
2018-09-10T13:30:15.343Z,3.10
2018-09-10T13:32:44.214Z,2.87
2018-09-10T13:35:13.125Z,3.17
2018-09-10T13:37:41.719Z,3.23
2018-09-10T13:40:11.288Z,3.23
2018-09-10T13:42:39.888Z,3.23
2018-09-10T13:45:08.539Z,2.80
2018-09-10T13:47:37.096Z,3.37
2018-09-10T13:50:05.785Z,3.13
2018-09-10T13:52:34.353Z,2.93
2018-09-10T13:55:02.908Z,3.03
2018-09-10T13:57:31.565Z,3.20
2018-09-10T14:00:00.132Z,3.50
2018-09-10T14:02:28.742Z,3.37
2018-09-10T14:04:57.533Z,2.60
2018-09-10T14:07:26.193Z,2.80
2018-09-10T14:09:54.822Z,3.23
2018-09-10T14:12:23.426Z,3.37
2018-09-10T14:14:52.386Z,3.20
2018-09-10T14:17:20.960Z,3.10
2018-09-10T14:19:49.558Z,3.30
2018-09-10T14:22:18.135Z,3.07
2018-09-10T14:24:46.738Z,3.10
2018-09-10T14:27:15.385Z,3.07
2018-09-10T14:29:44.005Z,3.47
2018-09-10T14:32:12.570Z,3.20
2018-09-10T14:34:41.150Z,3.10
2018-09-10T14:37:09.686Z,2.90
2018-09-10T14:39:38.290Z,3.27
2018-09-10T14:42:07.017Z,2.97
2018-09-10T14:44:36.121Z,3.13
2018-09-10T14:47:04.800Z,3.60
2018-09-10T14:49:33.346Z,3.27
2018-09-10T14:52:01.905Z,3.00
2018-09-10T14:54:30.402Z,3.50
2018-09-10T14:56:58.972Z,3.43
2018-09-10T14:59:27.513Z,3.40
2018-09-10T15:01:56.135Z,3.17
2018-09-10T15:04:24.719Z,2.63
2018-09-10T15:06:53.284Z,4.33
2018-09-10T15:09:21.598Z,2.80
2018-09-10T15:11:50.076Z,3.33
2018-09-10T15:14:18.487Z,3.17
2018-09-10T15:16:46.860Z,3.00
2018-09-10T15:19:15.284Z,3.33
2018-09-10T15:21:43.718Z,3.20
2018-09-10T15:24:12.146Z,3.47
2018-09-10T15:26:40.506Z,3.83
2018-09-10T15:29:08.952Z,2.93
2018-09-10T15:31:37.336Z,3.37
2018-09-10T15:34:05.783Z,3.03
2018-09-10T15:36:34.183Z,3.30
2018-09-10T15:39:02.607Z,3.17
2018-09-10T15:41:30.936Z,3.50
2018-09-10T15:43:59.302Z,3.93
2018-09-10T15:46:27.674Z,3.10
2018-09-10T15:48:56.097Z,3.00
2018-09-10T15:51:24.401Z,3.43
2018-09-10T15:53:52.761Z,3.10
2018-09-10T15:56:21.138Z,3.10
2018-09-10T15:58:49.583Z,3.60
2018-09-10T16:01:17.984Z,3.90
2018-09-10T16:03:46.365Z,3.27
2018-09-10T16:06:15.404Z,3.20
2018-09-10T16:08:43.751Z,3.00
2018-09-10T16:11:12.132Z,3.40
2018-09-10T16:13:41.054Z,4.20
2018-09-10T16:16:09.454Z,3.70
2018-09-10T16:18:37.804Z,3.73
2018-09-10T16:21:06.232Z,3.60
2018-09-10T16:23:34.673Z,3.43
2018-09-10T16:26:03.110Z,3.87
2018-09-10T16:28:32.338Z,3.43
2018-09-10T16:31:00.725Z,3.50
2018-09-10T16:33:29.120Z,3.60
2018-09-10T16:36:11.157Z,3.47
2018-09-10T16:38:39.547Z,4.10
2018-09-10T16:41:08.091Z,3.67
2018-09-10T16:43:36.403Z,4.00
2018-09-10T16:46:04.795Z,3.70
2018-09-10T16:48:33.373Z,3.90
2018-09-10T16:51:01.695Z,4.73
2018-09-10T16:53:30.071Z,4.23
2018-09-10T16:55:58.553Z,3.63
2018-09-10T16:58:27.286Z,3.27
2018-09-10T17:00:55.679Z,3.73
2018-09-10T17:03:24.095Z,3.57
2018-09-10T17:05:52.579Z,4.37
2018-09-10T17:08:20.984Z,4.00
2018-09-10T17:10:49.385Z,4.40
2018-09-10T17:13:17.784Z,4.13
2018-09-10T17:15:46.674Z,4.10
2018-09-10T17:18:15.068Z,4.73
2018-09-10T17:20:43.482Z,3.83
2018-09-10T17:23:11.970Z,3.77
2018-09-10T17:25:40.365Z,3.90
2018-09-10T17:28:08.752Z,4.10
2018-09-10T17:30:37.135Z,4.87
2018-09-10T17:33:05.575Z,4.27
2018-09-10T17:35:33.878Z,4.70
2018-09-10T17:38:02.214Z,4.87
2018-09-10T17:40:30.550Z,3.90
2018-09-10T17:42:59.359Z,3.77
2018-09-10T17:45:27.711Z,4.60
2018-09-10T17:47:56.090Z,4.47
2018-09-10T17:50:24.484Z,4.87
2018-09-10T17:52:52.877Z,3.90
2018-09-10T17:55:21.234Z,4.67
2018-09-10T17:57:49.603Z,5.37
2018-09-10T18:00:17.966Z,4.27
2018-09-10T18:02:46.330Z,4.53
2018-09-10T18:05:14.954Z,4.50
2018-09-10T18:07:43.387Z,4.70
2018-09-10T18:10:11.777Z,5.30
2018-09-10T18:12:40.224Z,5.20
2018-09-10T18:15:08.668Z,5.07
2018-09-10T18:17:37.056Z,4.10
2018-09-10T18:20:05.751Z,4.50
2018-09-10T18:22:34.151Z,4.37
2018-09-10T18:25:02.596Z,4.40
2018-09-10T18:27:31.002Z,4.83
2018-09-10T18:29:59.405Z,4.27
2018-09-10T18:32:27.825Z,4.57
2018-09-10T18:34:56.236Z,4.70
2018-09-10T18:37:24.651Z,4.47
2018-09-10T18:39:53.138Z,4.10
2018-09-10T18:42:21.597Z,3.93
2018-09-10T18:44:49.976Z,3.87
2018-09-10T18:47:18.410Z,4.77
2018-09-10T18:49:46.803Z,3.77
2018-09-10T18:52:15.231Z,3.53
2018-09-10T18:54:43.619Z,4.90
2018-09-10T18:57:12.106Z,3.73
2018-09-10T18:59:40.762Z,4.50
2018-09-10T19:02:09.232Z,4.03
2018-09-10T19:04:37.678Z,3.93
2018-09-10T19:07:06.718Z,3.77
2018-09-10T19:09:35.103Z,3.40
2018-09-10T19:12:03.530Z,3.23
2018-09-10T19:14:31.935Z,3.60
2018-09-10T19:17:01.255Z,3.87
2018-09-10T19:19:29.602Z,3.90
2018-09-10T19:21:58.062Z,4.57
2018-09-10T19:24:26.493Z,3.20
2018-09-10T19:26:54.925Z,3.93
2018-09-10T19:29:23.507Z,3.30
2018-09-10T19:31:51.963Z,3.17
2018-09-10T19:34:20.402Z,3.60
2018-09-10T19:36:48.851Z,3.20
2018-09-10T19:39:17.308Z,4.33
2018-09-10T19:41:45.755Z,3.60
2018-09-10T19:44:14.308Z,3.70
2018-09-10T19:46:42.640Z,3.13
2018-09-10T19:49:11.077Z,3.20
2018-09-10T19:51:39.517Z,3.30
2018-09-10T19:54:08.162Z,3.23
2018-09-10T19:56:36.618Z,3.70
2018-09-10T19:59:05.044Z,3.77
2018-09-10T20:01:33.495Z,4.00
2018-09-10T20:04:01.847Z,3.30
2018-09-10T20:06:30.233Z,4.27
2018-09-10T20:08:58.710Z,4.40
2018-09-10T20:11:27.181Z,3.83
2018-09-10T20:13:55.653Z,4.00
2018-09-10T20:16:24.367Z,5.03
2018-09-10T20:18:52.797Z,3.97
2018-09-10T20:21:21.245Z,3.97
2018-09-10T20:23:51.293Z,3.60
2018-09-10T20:26:19.729Z,4.00
2018-09-10T20:28:48.144Z,3.40
2018-09-10T20:31:16.556Z,3.30
2018-09-10T20:33:50.454Z,4.40
2018-09-10T20:36:18.927Z,3.73
2018-09-10T20:38:47.398Z,4.50
2018-09-10T20:41:16.182Z,4.37
2018-09-10T20:43:44.680Z,4.30
2018-09-10T20:46:13.153Z,4.00
2018-09-10T20:48:41.584Z,4.13
2018-09-10T20:51:10.003Z,3.80
2018-09-10T20:53:38.390Z,3.70
2018-09-10T20:56:07.418Z,4.40
2018-09-10T20:58:35.861Z,4.97
2018-09-10T21:01:04.333Z,4.00
2018-09-10T21:03:32.761Z,3.83
2018-09-10T21:06:01.193Z,4.43
2018-09-10T21:08:29.644Z,5.03
2018-09-10T21:10:58.754Z,3.30
2018-09-10T21:13:39.598Z,3.90
2018-09-10T21:16:08.042Z,3.40
2018-09-10T21:18:36.470Z,4.10
2018-09-10T21:21:04.982Z,3.73
2018-09-10T21:23:33.576Z,4.00
2018-09-10T21:26:01.978Z,4.20
2018-09-10T21:28:30.373Z,4.03
2018-09-10T21:30:58.867Z,4.47
2018-09-10T21:33:27.266Z,4.50
2018-09-10T21:35:55.687Z,4.70
2018-09-10T21:38:24.842Z,4.30
2018-09-10T21:40:53.290Z,4.10
2018-09-10T21:43:22.372Z,4.93
2018-09-10T21:45:50.810Z,4.33
2018-09-10T21:48:19.179Z,3.83
2018-09-10T21:50:47.585Z,4.10
2018-09-10T21:53:16.071Z,4.50
2018-09-10T21:55:44.555Z,4.10
2018-09-10T21:58:12.949Z,4.57
2018-09-10T22:00:48.857Z,3.73
2018-09-10T22:03:17.247Z,4.17
2018-09-10T22:05:45.710Z,4.43
2018-09-10T22:08:14.230Z,4.30
2018-09-10T22:10:42.598Z,4.83
2018-09-10T22:13:11.332Z,4.70
2018-09-10T22:15:39.771Z,4.60
2018-09-10T22:18:08.235Z,4.67
2018-09-10T22:20:36.621Z,4.30
2018-09-10T22:23:05.087Z,5.00
2018-09-10T22:25:34.241Z,4.90
2018-09-10T22:28:02.728Z,4.97
2018-09-10T22:30:31.145Z,4.23
2018-09-10T22:32:59.595Z,3.73
2018-09-10T22:35:27.996Z,4.27
2018-09-10T22:37:56.394Z,4.80
2018-09-10T22:40:24.877Z,4.60
2018-09-10T22:42:53.254Z,4.77
2018-09-10T22:45:22.236Z,4.30
2018-09-10T22:47:50.626Z,4.60
2018-09-10T22:50:19.053Z,4.20
2018-09-10T22:52:47.648Z,4.83
2018-09-10T22:55:16.313Z,4.90
2018-09-10T22:57:44.775Z,4.63
2018-09-10T23:00:13.258Z,5.73
2018-09-10T23:02:41.654Z,4.10
2018-09-10T23:05:10.187Z,4.67
2018-09-10T23:07:38.541Z,4.50
2018-09-10T23:10:07.145Z,5.27
2018-09-10T23:12:35.560Z,4.50
2018-09-10T23:15:03.993Z,4.50
2018-09-10T23:17:32.963Z,4.77
2018-09-10T23:20:01.348Z,4.60
2018-09-10T23:22:29.837Z,4.60
2018-09-10T23:24:58.404Z,4.70
2018-09-10T23:27:26.912Z,5.03
2018-09-10T23:29:55.292Z,5.07
2018-09-10T23:32:23.675Z,4.77
2018-09-10T23:34:52.060Z,4.33
2018-09-10T23:37:20.533Z,4.50
2018-09-10T23:39:49.073Z,5.20
2018-09-10T23:42:17.504Z,4.03
2018-09-10T23:44:45.879Z,4.80
2018-09-10T23:47:14.255Z,5.37
2018-09-10T23:49:42.678Z,4.20
2018-09-10T23:52:11.108Z,4.33
2018-09-10T23:54:39.482Z,4.40
2018-09-10T23:57:07.894Z,4.30
2018-09-10T23:59:36.332Z,4.93
